createdAt,value
2019-04-10T00:00:10.642Z,6.40
2019-04-10T00:02:37.641Z,7.63
2019-04-10T00:05:06.343Z,7.10
2019-04-10T00:07:32.971Z,6.60
2019-04-10T00:09:59.294Z,6.70
2019-04-10T00:12:25.486Z,5.93
2019-04-10T00:14:52.496Z,5.93
2019-04-10T00:17:18.593Z,5.77
2019-04-10T00:19:45.523Z,7.07
2019-04-10T00:22:11.719Z,6.57
2019-04-10T00:24:37.890Z,6.07
2019-04-10T00:27:04.116Z,6.20
2019-04-10T00:29:30.272Z,6.53
2019-04-10T00:31:56.411Z,6.37
2019-04-10T00:34:23.298Z,6.03
2019-04-10T00:36:49.244Z,6.73
2019-04-10T00:39:15.156Z,6.70
2019-04-10T00:41:41.025Z,6.30
2019-04-10T00:44:07.754Z,5.93
2019-04-10T00:46:34.648Z,6.77
2019-04-10T00:49:00.721Z,6.63
2019-04-10T00:51:27.420Z,6.57
2019-04-10T00:53:53.869Z,6.63
2019-04-10T00:56:20.757Z,6.87
2019-04-10T00:58:47.805Z,6.70
2019-04-10T01:01:13.921Z,6.33
2019-04-10T01:03:43.026Z,6.83
2019-04-10T01:06:11.272Z,6.77
2019-04-10T01:08:37.464Z,6.73
2019-04-10T01:11:03.316Z,6.97
2019-04-10T01:13:29.314Z,6.50
2019-04-10T01:15:55.243Z,6.57
2019-04-10T01:18:21.383Z,6.67
2019-04-10T01:20:48.075Z,7.40
2019-04-10T01:23:14.045Z,6.30
2019-04-10T01:25:40.869Z,6.73
2019-04-10T01:28:06.866Z,6.90
2019-04-10T01:30:32.832Z,7.43
2019-04-10T01:32:58.744Z,7.30
2019-04-10T01:35:24.621Z,6.63
2019-04-10T01:37:56.176Z,7.33
2019-04-10T01:40:19.143Z,6.83
2019-04-10T01:42:59.971Z,7.37
2019-04-10T01:45:13.840Z,7.33
2019-04-10T01:47:39.780Z,10.30
2019-04-10T01:50:06.377Z,7.70
2019-04-10T01:52:33.221Z,7.50
2019-04-10T01:54:59.778Z,7.00
2019-04-10T01:57:25.727Z,7.60
2019-04-10T01:59:51.740Z,7.77
2019-04-10T02:02:19.591Z,7.03
2019-04-10T02:04:45.545Z,7.73
2019-04-10T02:07:11.402Z,7.53
2019-04-10T02:09:37.255Z,7.83
2019-04-10T02:12:04.012Z,7.50
2019-04-10T02:14:30.102Z,8.27
2019-04-10T02:16:56.970Z,8.10
2019-04-10T02:19:23.871Z,8.43
2019-04-10T02:21:49.831Z,8.87
2019-04-10T02:24:16.636Z,9.10
2019-04-10T02:26:43.465Z,8.30
2019-04-10T02:29:09.363Z,8.50
2019-04-10T02:31:36.581Z,7.80
2019-04-10T02:34:04.608Z,8.27
2019-04-10T02:36:31.554Z,8.20
2019-04-10T02:39:10.147Z,8.53
2019-04-10T02:41:25.614Z,7.90
2019-04-10T02:43:51.572Z,9.00
2019-04-10T02:46:17.541Z,8.70
2019-04-10T02:48:43.480Z,7.77
2019-04-10T02:51:09.783Z,9.10
2019-04-10T02:53:37.397Z,8.10
2019-04-10T02:56:05.246Z,8.57
2019-04-10T02:58:32.240Z,8.07
2019-04-10T03:00:59.079Z,8.00
2019-04-10T03:03:25.479Z,8.47
2019-04-10T03:05:51.584Z,7.93
2019-04-10T03:08:17.534Z,8.47
2019-04-10T03:10:49.553Z,7.93
2019-04-10T03:13:11.747Z,8.17
2019-04-10T03:15:39.233Z,7.90
2019-04-10T03:18:06.366Z,7.37
2019-04-10T03:20:32.549Z,7.93
2019-04-10T03:22:58.813Z,8.53
2019-04-10T03:25:24.779Z,10.10
2019-04-10T03:27:50.626Z,7.90
2019-04-10T03:30:18.383Z,8.37
2019-04-10T03:32:51.585Z,8.23
2019-04-10T03:35:18.757Z,8.40
2019-04-10T03:37:44.705Z,8.87
2019-04-10T03:40:11.206Z,7.87
2019-04-10T03:42:37.314Z,8.80
2019-04-10T03:45:05.554Z,7.63
2019-04-10T03:47:31.669Z,8.37
2019-04-10T03:49:58.253Z,7.40
2019-04-10T03:52:25.266Z,7.83
2019-04-10T03:54:52.308Z,8.57
2019-04-10T03:57:18.474Z,8.33
2019-04-10T03:59:45.418Z,7.90
2019-04-10T04:02:11.681Z,7.57
2019-04-10T04:04:37.754Z,8.00
2019-04-10T04:07:03.636Z,8.13
2019-04-10T04:09:29.491Z,7.83
2019-04-10T04:11:57.883Z,7.90
2019-04-10T04:14:24.191Z,8.23
2019-04-10T04:16:51.159Z,7.70
2019-04-10T04:19:17.697Z,7.83
2019-04-10T04:21:43.985Z,8.37
2019-04-10T04:24:09.943Z,8.43
2019-04-10T04:26:35.795Z,10.67
2019-04-10T04:29:02.022Z,9.50
2019-04-10T04:31:29.072Z,9.50
2019-04-10T04:33:55.589Z,8.00
2019-04-10T04:36:21.513Z,8.87
2019-04-10T04:38:47.453Z,8.77
2019-04-10T04:41:13.372Z,8.50
2019-04-10T04:43:41.920Z,8.60
2019-04-10T04:46:07.921Z,8.73
2019-04-10T04:48:34.286Z,8.60
2019-04-10T04:51:01.195Z,10.33
2019-04-10T04:53:27.985Z,8.77
2019-04-10T04:55:53.919Z,8.57
2019-04-10T04:58:20.292Z,8.63
2019-04-10T05:00:46.251Z,8.70
2019-04-10T05:03:12.147Z,8.77
2019-04-10T05:05:39.053Z,8.87
2019-04-10T05:08:05.908Z,9.60
2019-04-10T05:10:33.546Z,8.63
2019-04-10T05:12:59.931Z,9.53
2019-04-10T05:15:26.900Z,8.93
2019-04-10T05:17:53.525Z,8.67
2019-04-10T05:20:19.663Z,8.63
2019-04-10T05:22:45.707Z,9.27
2019-04-10T05:25:11.610Z,9.13
2019-04-10T05:27:37.572Z,9.73
2019-04-10T05:30:06.211Z,9.07
2019-04-10T05:32:32.944Z,9.30
2019-04-10T05:34:59.129Z,8.70
2019-04-10T05:37:25.133Z,9.30
2019-04-10T05:39:52.335Z,9.07
2019-04-10T05:42:18.859Z,9.83
2019-04-10T05:44:44.798Z,9.83
2019-04-10T05:47:11.677Z,10.13
2019-04-10T05:49:37.775Z,9.93
2019-04-10T05:52:04.220Z,9.97
2019-04-10T05:54:31.137Z,9.40
2019-04-10T05:56:57.100Z,8.80
2019-04-10T05:59:23.891Z,8.83
2019-04-10T06:01:50.546Z,9.37
2019-04-10T06:04:16.906Z,10.30
2019-04-10T06:06:44.250Z,9.00
2019-04-10T06:09:10.257Z,9.80
2019-04-10T06:11:37.256Z,10.57
2019-04-10T06:14:03.506Z,7.83
2019-04-10T06:16:30.300Z,7.80
2019-04-10T06:18:57.561Z,7.23
2019-04-10T06:21:23.592Z,6.80
2019-04-10T06:23:49.869Z,6.57
2019-04-10T06:26:16.995Z,7.27
2019-04-10T06:28:43.195Z,6.73
2019-04-10T06:31:09.270Z,6.63
2019-04-10T06:33:36.085Z,7.23
2019-04-10T06:36:02.863Z,7.93
2019-04-10T06:38:29.043Z,7.33
2019-04-10T06:40:54.961Z,6.50
2019-04-10T06:43:22.195Z,6.87
2019-04-10T06:45:48.515Z,6.90
2019-04-10T06:48:15.059Z,6.13
2019-04-10T06:50:41.260Z,6.23
2019-04-10T06:53:08.237Z,6.27
2019-04-10T06:55:34.397Z,7.27
2019-04-10T06:58:00.912Z,7.80
2019-04-10T07:00:26.920Z,7.30
2019-04-10T07:02:52.805Z,7.53
2019-04-10T07:05:19.792Z,7.67
2019-04-10T07:07:51.977Z,6.80
2019-04-10T07:10:22.446Z,7.27
2019-04-10T07:12:41.729Z,7.00
2019-04-10T07:15:08.485Z,7.53
2019-04-10T07:17:37.548Z,7.60
2019-04-10T07:20:05.203Z,8.00
2019-04-10T07:22:31.180Z,7.33
2019-04-10T07:24:57.164Z,7.97
2019-04-10T07:27:23.661Z,8.13
2019-04-10T07:29:52.307Z,8.20
2019-04-10T07:32:18.396Z,7.67
2019-04-10T07:34:45.190Z,7.93
2019-04-10T07:37:14.656Z,7.40
2019-04-10T07:39:39.558Z,7.67
2019-04-10T07:42:06.201Z,7.07
2019-04-10T07:44:34.898Z,7.77
2019-04-10T07:47:00.940Z,7.30
2019-04-10T07:49:30.768Z,6.93
2019-04-10T07:51:54.599Z,8.27
2019-04-10T07:54:21.311Z,7.20
2019-04-10T07:56:49.387Z,7.67
2019-04-10T07:59:16.678Z,6.33
2019-04-10T08:01:43.725Z,6.23
2019-04-10T08:04:10.469Z,6.63
2019-04-10T08:06:37.418Z,6.33
2019-04-10T08:09:06.370Z,6.00
2019-04-10T08:11:32.287Z,6.37
2019-04-10T08:13:58.173Z,6.10
2019-04-10T08:16:25.248Z,6.47
2019-04-10T08:18:52.134Z,6.43
2019-04-10T08:21:18.161Z,7.17
2019-04-10T08:23:44.564Z,6.03
2019-04-10T08:26:10.730Z,6.50
2019-04-10T08:28:36.964Z,6.20
2019-04-10T08:31:02.984Z,6.50
2019-04-10T08:33:30.127Z,6.77
2019-04-10T08:35:56.863Z,6.87
2019-04-10T08:38:24.009Z,6.50
2019-04-10T08:40:50.199Z,6.80
2019-04-10T08:43:16.058Z,6.60
2019-04-10T08:45:49.526Z,6.93
2019-04-10T08:48:10.890Z,7.27
2019-04-10T08:50:36.817Z,7.10
2019-04-10T08:53:02.720Z,6.87
2019-04-10T08:55:28.608Z,6.93
2019-04-10T08:57:54.979Z,7.00
2019-04-10T09:00:21.144Z,6.27
2019-04-10T09:02:47.003Z,6.50
2019-04-10T09:05:13.276Z,6.83
2019-04-10T09:07:40.088Z,7.53
2019-04-10T09:10:06.503Z,6.80
2019-04-10T09:12:32.388Z,6.20
2019-04-10T09:14:59.714Z,6.70
2019-04-10T09:17:25.551Z,5.80
2019-04-10T09:19:52.123Z,6.50
2019-04-10T09:22:18.098Z,6.83
2019-04-10T09:24:44.630Z,6.67
2019-04-10T09:27:10.974Z,6.73
2019-04-10T09:29:36.933Z,6.60
2019-04-10T09:32:02.949Z,6.73
2019-04-10T09:34:28.909Z,6.27
2019-04-10T09:36:54.827Z,7.40
2019-04-10T09:39:20.704Z,6.53
2019-04-10T09:41:47.222Z,5.63
2019-04-10T09:44:14.348Z,6.50
2019-04-10T09:46:40.829Z,6.10
2019-04-10T09:49:07.009Z,5.93
2019-04-10T09:51:34.111Z,6.40
2019-04-10T09:54:00.241Z,6.23
2019-04-10T09:56:26.183Z,5.93
2019-04-10T09:58:53.969Z,6.10
2019-04-10T10:01:19.992Z,6.30
2019-04-10T10:03:45.915Z,6.03
2019-04-10T10:06:23.222Z,6.73
2019-04-10T10:08:39.524Z,6.37
2019-04-10T10:11:06.126Z,7.20
2019-04-10T10:13:32.274Z,6.70
2019-04-10T10:15:58.740Z,6.43
2019-04-10T10:18:27.712Z,6.90
2019-04-10T10:20:54.295Z,7.10
2019-04-10T10:23:20.307Z,6.63
2019-04-10T10:25:46.398Z,6.23
2019-04-10T10:28:13.189Z,6.67
2019-04-10T10:30:39.756Z,6.30
2019-04-10T10:33:05.707Z,6.50
2019-04-10T10:35:31.562Z,6.77
2019-04-10T10:37:57.457Z,6.27
2019-04-10T10:40:25.582Z,6.53
2019-04-10T10:42:51.931Z,7.00
2019-04-10T10:45:18.629Z,7.07
2019-04-10T10:47:44.686Z,7.57
2019-04-10T10:50:13.006Z,8.30
2019-04-10T10:52:44.178Z,7.13
2019-04-10T10:55:10.125Z,6.93
2019-04-10T10:57:37.344Z,8.20
2019-04-10T11:00:08.191Z,7.17
2019-04-10T11:02:35.801Z,6.93
2019-04-10T11:05:04.986Z,8.03
2019-04-10T11:07:31.021Z,6.50
2019-04-10T11:09:58.591Z,7.67
2019-04-10T11:12:24.701Z,7.50
2019-04-10T11:14:52.298Z,6.30
2019-04-10T11:17:18.396Z,5.90
2019-04-10T11:19:45.544Z,6.53
2019-04-10T11:22:14.075Z,6.63
2019-04-10T11:24:41.283Z,6.73
2019-04-10T11:27:09.999Z,6.57
2019-04-10T11:29:37.685Z,6.10
2019-04-10T11:32:04.257Z,5.63
2019-04-10T11:34:30.596Z,6.80
2019-04-10T11:37:16.530Z,6.30
2019-04-10T11:39:28.563Z,5.73
2019-04-10T11:41:55.135Z,6.13
2019-04-10T11:44:21.634Z,6.53
2019-04-10T11:46:49.230Z,5.70
2019-04-10T11:49:15.945Z,5.77
2019-04-10T11:51:45.322Z,5.97
2019-04-10T11:54:14.585Z,6.80
2019-04-10T11:56:38.907Z,6.37
2019-04-10T11:59:07.600Z,6.30
2019-04-10T12:01:34.242Z,6.00
2019-04-10T12:04:00.469Z,5.93
2019-04-10T12:06:30.925Z,6.10
2019-04-10T12:09:19.539Z,5.50
2019-04-10T12:11:25.695Z,6.53
2019-04-10T12:13:51.771Z,6.43
2019-04-10T12:16:17.822Z,5.33
2019-04-10T12:18:43.773Z,7.17
2019-04-10T12:21:09.698Z,5.47
2019-04-10T12:23:36.801Z,6.60
2019-04-10T12:26:03.354Z,5.97
2019-04-10T12:28:29.873Z,6.20
2019-04-10T12:30:55.829Z,5.33
2019-04-10T12:33:21.679Z,6.90
2019-04-10T12:35:47.810Z,6.20
2019-04-10T12:38:13.692Z,5.37
2019-04-10T12:40:40.508Z,6.20
2019-04-10T12:43:06.554Z,6.17
2019-04-10T12:45:32.666Z,6.17
2019-04-10T12:47:58.637Z,6.27
2019-04-10T12:50:24.774Z,5.30
2019-04-10T12:52:51.284Z,5.67
2019-04-10T12:55:17.172Z,5.73
2019-04-10T12:57:43.457Z,5.00
2019-04-10T13:00:11.786Z,5.60
2019-04-10T13:02:38.640Z,5.00
2019-04-10T13:05:07.702Z,5.37
2019-04-10T13:07:33.931Z,5.43
2019-04-10T13:09:59.958Z,5.63
2019-04-10T13:12:26.483Z,4.37
2019-04-10T13:14:52.858Z,4.90
2019-04-10T13:17:20.274Z,5.63
2019-04-10T13:19:46.342Z,5.90
2019-04-10T13:22:12.268Z,5.37
2019-04-10T13:24:38.158Z,5.30
2019-04-10T13:27:04.286Z,5.00
2019-04-10T13:29:30.151Z,5.57
2019-04-10T13:31:56.160Z,6.23
2019-04-10T13:34:25.036Z,5.70
2019-04-10T13:36:51.578Z,6.00
2019-04-10T13:39:18.969Z,6.13
2019-04-10T13:41:48.426Z,5.13
2019-04-10T13:44:14.398Z,6.03
2019-04-10T13:46:40.686Z,6.33
2019-04-10T13:49:06.750Z,5.93
2019-04-10T13:51:32.646Z,5.57
2019-04-10T13:53:58.594Z,6.20
2019-04-10T13:56:25.346Z,5.63
2019-04-10T13:58:51.290Z,5.77
2019-04-10T14:01:19.635Z,6.33
2019-04-10T14:03:46.897Z,6.10
2019-04-10T14:06:13.683Z,5.57
2019-04-10T14:08:58.628Z,5.17
2019-04-10T14:11:08.993Z,5.87
2019-04-10T14:13:35.945Z,5.83
2019-04-10T14:16:01.808Z,6.03
2019-04-10T14:18:27.667Z,6.13
2019-04-10T14:20:53.595Z,6.53
2019-04-10T14:23:22.281Z,4.77
2019-04-10T14:25:56.418Z,5.77
2019-04-10T14:28:24.922Z,5.63
2019-04-10T14:30:51.591Z,5.93
2019-04-10T14:33:17.567Z,5.20
2019-04-10T14:35:45.385Z,5.80
2019-04-10T14:38:14.900Z,6.53
2019-04-10T14:40:41.290Z,4.90
2019-04-10T14:43:07.547Z,5.70
2019-04-10T14:45:35.338Z,5.53
2019-04-10T14:48:01.320Z,5.03
2019-04-10T14:50:27.611Z,6.33
2019-04-10T14:52:53.796Z,5.57
2019-04-10T14:55:22.060Z,4.90
2019-04-10T14:57:48.201Z,5.10
2019-04-10T15:00:16.826Z,5.63
2019-04-10T15:02:43.087Z,5.73
2019-04-10T15:05:10.062Z,5.50
2019-04-10T15:07:37.198Z,5.20
2019-04-10T15:10:04.256Z,7.03
2019-04-10T15:12:30.223Z,6.93
2019-04-10T15:14:56.271Z,5.90
2019-04-10T15:17:23.115Z,6.30
2019-04-10T15:19:50.630Z,5.77
2019-04-10T15:22:17.819Z,6.37
2019-04-10T15:24:45.007Z,5.47
2019-04-10T15:27:11.175Z,5.43
2019-04-10T15:29:37.195Z,5.90
2019-04-10T15:32:04.161Z,5.77
2019-04-10T15:34:30.306Z,4.80
2019-04-10T15:36:56.455Z,5.30
2019-04-10T15:39:32.366Z,5.67
2019-04-10T15:41:51.837Z,5.40
2019-04-10T15:44:18.292Z,5.40
2019-04-10T15:46:44.237Z,5.10
2019-04-10T15:49:11.102Z,5.03
2019-04-10T15:51:37.111Z,5.00
2019-04-10T15:54:03.002Z,4.80
2019-04-10T15:56:29.802Z,6.30
2019-04-10T15:58:56.841Z,5.00
2019-04-10T16:01:28.149Z,4.90
2019-04-10T16:03:53.413Z,4.80
2019-04-10T16:06:19.309Z,5.07
2019-04-10T16:08:45.179Z,4.93
2019-04-10T16:11:21.963Z,4.90
2019-04-10T16:13:49.996Z,4.60
2019-04-10T16:16:17.746Z,4.53
2019-04-10T16:18:44.320Z,4.57
2019-04-10T16:21:10.389Z,4.63
2019-04-10T16:23:38.294Z,4.40
2019-04-10T16:26:06.972Z,4.47
2019-04-10T16:28:33.547Z,4.63
2019-04-10T16:31:01.407Z,4.60
2019-04-10T16:33:27.400Z,4.50
2019-04-10T16:35:53.269Z,5.20
2019-04-10T16:38:19.115Z,5.07
2019-04-10T16:40:45.913Z,5.63
2019-04-10T16:43:13.945Z,5.00
2019-04-10T16:45:42.966Z,5.20
2019-04-10T16:48:08.810Z,5.03
2019-04-10T16:50:34.824Z,5.37
2019-04-10T16:53:01.320Z,4.73
2019-04-10T16:55:27.308Z,4.83
2019-04-10T16:57:53.491Z,5.27
2019-04-10T17:00:21.024Z,4.97
2019-04-10T17:02:48.524Z,4.73
2019-04-10T17:05:14.561Z,5.10
2019-04-10T17:07:41.249Z,5.43
2019-04-10T17:10:15.980Z,5.93
2019-04-10T17:12:35.922Z,5.47
2019-04-10T17:15:06.195Z,5.07
2019-04-10T17:17:32.572Z,4.70
2019-04-10T17:19:59.502Z,5.70
2019-04-10T17:22:32.358Z,5.97
2019-04-10T17:24:54.032Z,6.00
2019-04-10T17:27:19.874Z,5.03
2019-04-10T17:29:47.252Z,5.17
2019-04-10T17:32:15.412Z,4.60
2019-04-10T17:34:41.332Z,4.37
2019-04-10T17:37:07.574Z,4.40
2019-04-10T17:39:33.564Z,5.03
2019-04-10T17:41:59.905Z,5.67
2019-04-10T17:44:26.067Z,5.10
2019-04-10T17:46:51.952Z,5.27
2019-04-10T17:49:19.149Z,4.80
2019-04-10T17:51:45.944Z,5.27
2019-04-10T17:54:13.800Z,4.50
2019-04-10T17:56:40.176Z,5.00
2019-04-10T17:59:06.203Z,4.47
2019-04-10T18:01:32.773Z,4.90
2019-04-10T18:04:01.825Z,5.10
2019-04-10T18:06:27.688Z,4.87
2019-04-10T18:08:53.675Z,4.47
2019-04-10T18:11:22.382Z,4.97
2019-04-10T18:13:49.182Z,4.80
2019-04-10T18:16:15.149Z,4.83
2019-04-10T18:18:42.045Z,4.80
2019-04-10T18:21:08.627Z,4.97
2019-04-10T18:23:35.605Z,5.10
2019-04-10T18:26:02.497Z,4.57
2019-04-10T18:28:30.937Z,4.70
2019-04-10T18:30:56.554Z,5.13
2019-04-10T18:33:22.624Z,5.37
2019-04-10T18:35:49.085Z,4.70
2019-04-10T18:38:17.403Z,4.97
2019-04-10T18:40:53.106Z,5.40
2019-04-10T18:43:11.870Z,5.37
2019-04-10T18:45:40.534Z,6.97
2019-04-10T18:48:06.252Z,6.17
2019-04-10T18:50:32.288Z,4.97
2019-04-10T18:52:59.348Z,4.80
2019-04-10T18:55:25.823Z,4.50
2019-04-10T18:57:51.680Z,5.00
2019-04-10T19:00:28.535Z,4.93
2019-04-10T19:03:09.525Z,4.77
2019-04-10T19:05:38.351Z,4.60
2019-04-10T19:08:05.063Z,4.60
2019-04-10T19:10:31.190Z,4.67
2019-04-10T19:12:57.313Z,4.57
2019-04-10T19:15:24.419Z,5.03
2019-04-10T19:17:50.962Z,4.50
2019-04-10T19:20:17.982Z,4.40
2019-04-10T19:22:44.681Z,4.77
2019-04-10T19:25:16.513Z,4.40
2019-04-10T19:27:44.452Z,4.77
2019-04-10T19:30:15.275Z,4.63
2019-04-10T19:32:43.732Z,4.73
2019-04-10T19:35:10.753Z,4.90
2019-04-10T19:37:45.799Z,4.33
2019-04-10T19:40:12.230Z,6.23
2019-04-10T19:42:41.782Z,4.50
2019-04-10T19:45:10.360Z,4.50
2019-04-10T19:47:36.767Z,4.80
2019-04-10T19:50:05.370Z,4.40
2019-04-10T19:52:31.447Z,4.20
2019-04-10T19:54:59.611Z,4.50
2019-04-10T19:57:25.628Z,4.30
2019-04-10T19:59:52.292Z,5.37
2019-04-10T20:02:19.065Z,4.63
2019-04-10T20:04:45.175Z,3.93
2019-04-10T20:07:11.186Z,4.37
2019-04-10T20:09:37.169Z,4.70
2019-04-10T20:12:04.326Z,4.47
2019-04-10T20:14:30.585Z,4.50
2019-04-10T20:16:57.643Z,4.97
2019-04-10T20:19:24.597Z,4.07
2019-04-10T20:21:50.530Z,3.90
2019-04-10T20:24:16.651Z,3.80
2019-04-10T20:26:43.390Z,3.83
2019-04-10T20:29:10.924Z,4.00
2019-04-10T20:31:37.643Z,4.10
2019-04-10T20:34:03.903Z,3.83
2019-04-10T20:36:31.053Z,3.63
2019-04-10T20:38:57.210Z,3.77
2019-04-10T20:41:23.142Z,3.80
2019-04-10T20:43:49.091Z,3.93
2019-04-10T20:46:15.022Z,4.20
2019-04-10T20:48:40.863Z,3.40
2019-04-10T20:51:06.793Z,3.53
2019-04-10T20:53:33.611Z,3.77
2019-04-10T20:56:01.973Z,4.10
2019-04-10T20:58:27.956Z,3.70
2019-04-10T21:00:54.765Z,3.57
2019-04-10T21:03:20.708Z,3.60
2019-04-10T21:05:46.626Z,3.13
2019-04-10T21:08:13.640Z,3.33
2019-04-10T21:10:40.868Z,3.60
2019-04-10T21:13:07.000Z,3.80
2019-04-10T21:15:33.427Z,3.57
2019-04-10T21:17:59.433Z,3.50
2019-04-10T21:20:26.123Z,4.00
2019-04-10T21:22:53.449Z,3.30
2019-04-10T21:25:19.411Z,3.60
2019-04-10T21:27:48.474Z,3.83
2019-04-10T21:30:15.726Z,3.33
2019-04-10T21:32:43.830Z,3.60
2019-04-10T21:35:15.877Z,3.50
2019-04-10T21:37:42.450Z,3.87
2019-04-10T21:40:08.675Z,3.77
2019-04-10T21:42:34.529Z,3.70
2019-04-10T21:45:00.422Z,3.80
2019-04-10T21:47:26.323Z,3.37
2019-04-10T21:49:53.309Z,3.43
2019-04-10T21:52:19.324Z,3.50
2019-04-10T21:54:51.206Z,3.50
2019-04-10T21:57:14.020Z,3.63
2019-04-10T21:59:39.876Z,3.53
2019-04-10T22:02:06.829Z,3.30
2019-04-10T22:04:32.947Z,3.70
2019-04-10T22:07:03.608Z,3.60
2019-04-10T22:09:47.409Z,3.70
2019-04-10T22:12:25.646Z,4.20
2019-04-10T22:14:46.059Z,4.07
2019-04-10T22:17:12.992Z,3.47
2019-04-10T22:19:39.562Z,3.90
2019-04-10T22:22:06.292Z,3.60
2019-04-10T22:24:32.379Z,3.60
2019-04-10T22:26:58.624Z,3.90
2019-04-10T22:29:28.261Z,4.07
2019-04-10T22:31:54.226Z,4.07
2019-04-10T22:34:21.289Z,3.77
2019-04-10T22:36:47.411Z,4.00
2019-04-10T22:39:16.671Z,4.30
2019-04-10T22:41:43.302Z,3.90
2019-04-10T22:44:09.773Z,3.70
2019-04-10T22:46:36.297Z,3.77
2019-04-10T22:49:02.375Z,3.90
2019-04-10T22:51:29.105Z,4.30
2019-04-10T22:53:55.637Z,3.90
2019-04-10T22:56:21.586Z,5.33
2019-04-10T22:58:47.493Z,4.20
2019-04-10T23:01:13.520Z,4.60
2019-04-10T23:03:39.469Z,3.67
2019-04-10T23:06:05.376Z,3.70
2019-04-10T23:08:31.640Z,4.10
2019-04-10T23:10:57.839Z,4.37
2019-04-10T23:13:23.799Z,4.07
2019-04-10T23:15:49.664Z,4.20
2019-04-10T23:18:15.513Z,4.27
2019-04-10T23:20:41.769Z,4.17
2019-04-10T23:23:08.561Z,4.20
2019-04-10T23:25:34.788Z,4.27
2019-04-10T23:28:01.083Z,4.57
2019-04-10T23:30:27.087Z,4.50
2019-04-10T23:32:53.537Z,3.87
2019-04-10T23:35:19.506Z,4.23
2019-04-10T23:37:45.430Z,4.73
2019-04-10T23:40:12.452Z,3.87
2019-04-10T23:42:38.415Z,4.03
2019-04-10T23:45:05.174Z,4.73
2019-04-10T23:47:31.859Z,3.97
2019-04-10T23:49:57.832Z,3.73
2019-04-10T23:52:23.662Z,4.30
2019-04-10T23:54:49.548Z,4.27
2019-04-10T23:57:15.371Z,4.07
2019-04-10T23:59:41.214Z,3.97
